Time;durP1;ratioP1;P1;durP2;ratioP2;P2;SDS_P1;SDS_P2;PMS_P1;PMS_P2;Temp;Humidity;BMP_temperature;BMP_pressure;BME280_temperature;BME280_humidity;BME280_pressure;Samples;Min_cycle;Max_cycle;Signal;HPM_P1;HPM_P2
2023/05/22 04:02:57;;;;;;;3.87;3.57;;;17.10;99.90;;;;;;4907729;29;20564;-70
2023/05/22 04:05:24;;;;;;;4.23;3.93;;;17.10;99.90;;;;;;4916103;29;20577;-70
2023/05/22 04:07:51;;;;;;;4.00;3.80;;;17.10;99.90;;;;;;4904922;29;20491;-70
2023/05/22 04:10:21;;;;;;;4.50;4.20;;;17.10;99.90;;;;;;4912519;29;20470;-70
2023/05/22 04:12:48;;;;;;;4.40;4.20;;;17.20;99.90;;;;;;4913111;29;20836;-70
2023/05/22 04:15:14;;;;;;;4.77;4.40;;;17.20;99.90;;;;;;4911567;29;20477;-70
2023/05/22 04:17:41;;;;;;;5.00;4.00;;;17.20;99.90;;;;;;4912571;29;20467;-70
2023/05/22 04:20:10;;;;;;;4.83;4.43;;;17.30;99.90;;;;;;4911617;29;20478;-70
2023/05/22 04:22:38;;;;;;;4.40;4.10;;;17.30;99.90;;;;;;4904782;29;20535;-70
2023/05/22 04:25:05;;;;;;;4.63;4.30;;;17.40;99.90;;;;;;4912674;29;20495;-70
2023/05/22 04:27:33;;;;;;;4.23;4.03;;;17.50;99.90;;;;;;4913360;29;20494;-70
2023/05/22 04:30:01;;;;;;;3.93;3.03;;;17.60;99.90;;;;;;4910776;29;20845;-71
2023/05/22 04:32:28;;;;;;;3.93;3.73;;;17.60;99.90;;;;;;4910798;29;20529;-71
2023/05/22 04:34:57;;;;;;;2.50;2.50;;;17.70;99.90;;;;;;4911014;29;20565;-70
2023/05/22 04:37:27;;;;;;;4.67;4.37;;;17.70;99.90;;;;;;4909503;29;20491;-70
2023/05/22 04:39:57;;;;;;;3.73;3.50;;;17.60;99.90;;;;;;4908365;29;20473;-71
2023/05/22 04:42:24;;;;;;;3.73;3.53;;;17.70;99.90;;;;;;4912853;29;20493;-70
2023/05/22 04:44:51;;;;;;;3.13;2.93;;;17.70;99.90;;;;;;4907523;29;20474;-71
2023/05/22 04:47:18;;;;;;;3.57;3.40;;;17.70;99.90;;;;;;4909580;29;20495;-71
2023/05/22 04:49:45;;;;;;;4.33;4.13;;;17.80;99.90;;;;;;4911192;29;20514;-71
2023/05/22 04:52:12;;;;;;;4.23;3.83;;;17.80;99.90;;;;;;4912771;29;20856;-71
2023/05/22 04:54:42;;;;;;;3.60;3.37;;;17.80;99.90;;;;;;4911862;29;20485;-71
2023/05/22 04:57:08;;;;;;;2.87;2.87;;;17.90;99.90;;;;;;4912972;29;20509;-70
2023/05/22 04:59:37;;;;;;;4.00;3.60;;;18.00;99.90;;;;;;4908937;29;20599;-71
2023/05/22 05:02:05;;;;;;;4.10;3.90;;;18.20;99.90;;;;;;4904463;29;20529;-71
2023/05/22 05:04:31;;;;;;;7.67;5.03;;;18.30;99.90;;;;;;4912162;29;20471;-70
2023/05/22 05:06:58;;;;;;;3.07;3.03;;;18.40;99.90;;;;;;4906970;29;20494;-71
2023/05/22 05:09:25;;;;;;;3.60;3.40;;;18.60;99.90;;;;;;4913001;29;20485;-70
2023/05/22 05:11:53;;;;;;;3.17;2.97;;;18.80;99.90;;;;;;4921005;29;20546;-71
2023/05/22 05:14:20;;;;;;;3.23;3.13;;;19.00;99.90;;;;;;4918446;29;20943;-71
2023/05/22 05:16:46;;;;;;;3.30;3.10;;;19.30;99.90;;;;;;4910752;29;20474;-71
2023/05/22 05:19:14;;;;;;;4.17;3.73;;;19.60;99.90;;;;;;4913033;29;20470;-71
2023/05/22 05:21:40;;;;;;;3.30;3.10;;;19.80;99.90;;;;;;4912695;29;20487;-72
2023/05/22 05:24:08;;;;;;;2.70;2.60;;;19.90;99.90;;;;;;4907676;29;20475;-72
2023/05/22 05:26:35;;;;;;;2.43;2.43;;;20.10;99.90;;;;;;4900265;29;20479;-72
2023/05/22 05:29:03;;;;;;;2.97;2.90;;;20.30;99.90;;;;;;4907905;29;21228;-71
2023/05/22 05:31:31;;;;;;;2.97;2.87;;;20.40;99.90;;;;;;4907898;29;20494;-72
2023/05/22 05:33:58;;;;;;;2.83;2.73;;;20.50;99.90;;;;;;4912561;29;20800;-72
2023/05/22 05:36:25;;;;;;;2.53;2.53;;;20.50;99.90;;;;;;4909627;29;20852;-72
2023/05/22 05:38:53;;;;;;;2.87;2.77;;;20.50;99.90;;;;;;4909250;29;20471;-72
2023/05/22 05:41:20;;;;;;;2.97;2.87;;;20.40;99.90;;;;;;4910411;29;20499;-71
2023/05/22 05:43:47;;;;;;;3.40;3.30;;;20.50;99.90;;;;;;4909113;29;20494;-72
2023/05/22 05:46:15;;;;;;;2.50;2.40;;;20.40;99.90;;;;;;4909792;29;20467;-72
2023/05/22 05:48:42;;;;;;;2.60;2.60;;;20.50;99.90;;;;;;4910481;29;20522;-71
2023/05/22 05:51:09;;;;;;;2.87;2.87;;;20.60;99.90;;;;;;4905587;29;20539;-72
2023/05/22 05:53:36;;;;;;;3.23;3.03;;;20.70;99.90;;;;;;4912049;29;20486;-71
2023/05/22 05:56:03;;;;;;;2.73;2.63;;;20.80;99.90;;;;;;4911810;29;20884;-72
2023/05/22 05:58:30;;;;;;;3.10;3.00;;;21.00;99.90;;;;;;4910164;29;20518;-71
2023/05/22 06:00:57;;;;;;;4.30;2.70;;;21.20;99.90;;;;;;4906795;29;20503;-70
2023/05/22 06:03:25;;;;;;;2.23;2.20;;;21.50;99.90;;;;;;4912502;29;20546;-72
2023/05/22 06:05:52;;;;;;;2.83;2.80;;;21.80;99.90;;;;;;4913817;29;20564;-72
2023/05/22 06:08:20;;;;;;;2.90;2.80;;;22.10;99.90;;;;;;4915897;29;20514;-72
2023/05/22 06:10:47;;;;;;;2.23;2.23;;;22.20;99.90;;;;;;4914171;29;20504;-72
2023/05/22 06:13:14;;;;;;;2.97;2.70;;;22.50;99.90;;;;;;4913701;29;20474;-72
2023/05/22 06:15:41;;;;;;;2.60;2.50;;;22.70;99.90;;;;;;4914020;29;20478;-72
2023/05/22 06:18:07;;;;;;;3.03;2.93;;;23.00;99.90;;;;;;4913196;29;20880;-72
2023/05/22 06:20:35;;;;;;;2.30;2.30;;;23.50;99.90;;;;;;4914213;29;20508;-72
2023/05/22 06:23:02;;;;;;;2.73;2.63;;;23.90;99.90;;;;;;4911936;29;20492;-72
2023/05/22 06:25:29;;;;;;;2.27;2.27;;;24.30;99.90;;;;;;4912210;29;20473;-72
2023/05/22 06:27:56;;;;;;;1.97;1.97;;;24.40;99.90;;;;;;4916285;29;20530;-72
2023/05/22 06:30:23;;;;;;;1.83;1.83;;;24.60;99.90;;;;;;4908838;29;20474;-72
2023/05/22 06:32:51;;;;;;;2.57;2.57;;;24.70;99.90;;;;;;4913093;29;20475;-71
2023/05/22 06:35:18;;;;;;;2.73;2.70;;;24.50;99.90;;;;;;4913440;29;20477;-72
2023/05/22 06:37:46;;;;;;;1.57;1.57;;;24.20;99.90;;;;;;4914140;29;20482;-72
2023/05/22 06:40:13;;;;;;;2.50;2.40;;;23.90;99.90;;;;;;4914168;29;20485;-72
2023/05/22 06:42:40;;;;;;;1.80;1.80;;;24.20;99.90;;;;;;4912734;29;20888;-72
2023/05/22 06:45:07;;;;;;;2.23;2.23;;;24.70;99.90;;;;;;4914527;29;20210;-72
2023/05/22 06:47:34;;;;;;;2.23;2.13;;;24.90;99.90;;;;;;4909485;29;20496;-72
2023/05/22 06:50:01;;;;;;;2.73;2.63;;;25.20;99.90;;;;;;4907722;29;20988;-71
2023/05/22 06:52:28;;;;;;;2.20;2.10;;;25.30;99.90;;;;;;4910186;29;20864;-72
2023/05/22 06:55:03;;;;;;;2.10;2.10;;;25.30;99.50;;;;;;4911432;29;20960;-72
2023/05/22 06:57:30;;;;;;;1.60;1.60;;;25.10;98.90;;;;;;4914141;29;20470;-71
2023/05/22 06:59:56;;;;;;;2.07;2.07;;;24.70;99.40;;;;;;4914286;29;20481;-73
2023/05/22 07:02:23;;;;;;;2.10;2.10;;;24.50;99.90;;;;;;4912041;29;20505;-72
2023/05/22 07:04:51;;;;;;;2.43;2.37;;;24.50;99.70;;;;;;4904033;29;20844;-71
2023/05/22 07:07:18;;;;;;;1.83;1.83;;;24.70;99.70;;;;;;4913177;29;20544;-71
2023/05/22 07:09:44;;;;;;;2.63;2.50;;;25.00;99.40;;;;;;4913238;29;20466;-71
2023/05/22 07:12:13;;;;;;;2.40;2.40;;;25.40;99.00;;;;;;4915002;29;20488;-71
2023/05/22 07:14:39;;;;;;;1.70;1.70;;;25.60;98.80;;;;;;4913589;29;20469;-72
2023/05/22 07:17:06;;;;;;;2.20;2.10;;;25.80;98.80;;;;;;4911779;29;20503;-72
2023/05/22 07:19:34;;;;;;;2.10;2.10;;;25.90;98.80;;;;;;4913874;29;20471;-72
2023/05/22 07:22:01;;;;;;;2.37;2.33;;;26.20;98.40;;;;;;4905609;29;20492;-72
2023/05/22 07:24:27;;;;;;;2.43;2.33;;;26.20;98.40;;;;;;4913921;29;20465;-73
2023/05/22 07:26:54;;;;;;;2.30;2.30;;;26.50;98.00;;;;;;4912474;29;20474;-72
2023/05/22 07:29:22;;;;;;;1.93;1.93;;;27.00;97.60;;;;;;4907783;29;20491;-72
2023/05/22 07:31:49;;;;;;;2.10;2.10;;;27.30;96.90;;;;;;4904926;29;20495;-73
2023/05/22 07:34:16;;;;;;;1.90;1.90;;;27.40;96.20;;;;;;4906468;29;20478;-73
2023/05/22 07:36:43;;;;;;;1.93;1.93;;;27.10;96.40;;;;;;4911293;29;20470;-72
2023/05/22 07:39:10;;;;;;;1.60;1.60;;;26.90;95.80;;;;;;4914539;29;20470;-71
2023/05/22 07:41:36;;;;;;;2.77;1.93;;;26.90;95.90;;;;;;4910818;29;20497;-71
2023/05/22 07:44:03;;;;;;;1.73;1.73;;;26.60;95.40;;;;;;4912779;29;21048;-71
2023/05/22 07:46:34;;;;;;;2.33;2.23;;;26.80;95.60;;;;;;4909130;29;20484;-71
2023/05/22 07:49:00;;;;;;;2.27;2.17;;;26.90;95.30;;;;;;4914300;29;21282;-71
2023/05/22 07:51:27;;;;;;;1.80;1.80;;;26.90;95.40;;;;;;4914394;29;20600;-70
2023/05/22 07:53:54;;;;;;;2.10;2.10;;;27.00;95.00;;;;;;4913965;29;20548;-70
2023/05/22 07:56:21;;;;;;;1.90;1.80;;;27.00;94.90;;;;;;4912974;29;20475;-71
2023/05/22 07:58:47;;;;;;;2.30;2.20;;;27.20;95.40;;;;;;4907443;29;20954;-71
2023/05/22 08:01:15;;;;;;;2.40;2.30;;;27.60;95.10;;;;;;4872300;29;1080091;-70
2023/05/22 08:03:43;;;;;;;2.20;2.20;;;27.90;94.30;;;;;;4911552;29;20557;-71
2023/05/22 08:06:10;;;;;;;1.80;1.80;;;27.90;93.70;;;;;;4910710;29;20478;-71
2023/05/22 08:08:36;;;;;;;2.20;2.10;;;27.90;94.10;;;;;;4911343;29;20494;-71
2023/05/22 08:11:03;;;;;;;2.13;2.13;;;27.90;93.90;;;;;;4912908;29;20502;-69
2023/05/22 08:13:30;;;;;;;1.70;1.70;;;27.50;93.70;;;;;;4912828;29;20964;-70
2023/05/22 08:15:56;;;;;;;2.50;2.40;;;27.40;93.70;;;;;;4905579;29;20497;-70
2023/05/22 08:18:26;;;;;;;2.10;2.03;;;27.50;93.40;;;;;;4907606;29;20475;-71
2023/05/22 08:20:55;;;;;;;1.83;1.83;;;27.40;93.40;;;;;;4912270;29;20497;-71
2023/05/22 08:23:21;;;;;;;1.73;1.73;;;27.30;93.30;;;;;;4912659;29;20481;-71
2023/05/22 08:25:48;;;;;;;2.60;2.40;;;27.30;93.40;;;;;;4913583;29;20888;-71
2023/05/22 08:28:15;;;;;;;2.50;2.50;;;27.30;93.20;;;;;;4907405;29;20600;-71
2023/05/22 08:30:42;;;;;;;1.80;1.70;;;27.10;92.80;;;;;;4908781;29;20532;-71
2023/05/22 08:33:09;;;;;;;1.73;1.73;;;26.90;93.10;;;;;;4909972;29;20479;-71
2023/05/22 08:35:35;;;;;;;2.23;2.23;;;26.70;93.10;;;;;;4913088;29;20480;-71
2023/05/22 08:38:03;;;;;;;1.70;1.70;;;26.50;93.50;;;;;;4912031;29;20473;-71
2023/05/22 08:40:36;;;;;;;1.83;1.73;;;26.30;92.90;;;;;;4913082;29;20478;-70
2023/05/22 08:43:03;;;;;;;2.13;2.03;;;26.10;93.50;;;;;;4909881;29;20509;-71
2023/05/22 08:45:32;;;;;;;2.10;2.10;;;26.00;94.10;;;;;;4907268;29;20484;-71
2023/05/22 08:48:00;;;;;;;2.13;2.03;;;26.00;94.30;;;;;;4911462;29;20580;-72
2023/05/22 08:50:27;;;;;;;1.67;1.57;;;26.00;94.00;;;;;;4912491;29;20560;-71
2023/05/22 08:52:57;;;;;;;1.93;1.93;;;26.10;94.50;;;;;;4914302;29;20468;-71
2023/05/22 08:55:25;;;;;;;1.50;1.50;;;26.00;94.40;;;;;;4904096;29;20491;-71
2023/05/22 08:57:54;;;;;;;2.00;2.00;;;26.00;94.30;;;;;;4909732;29;20489;-71
2023/05/22 09:00:22;;;;;;;1.50;1.50;;;26.10;94.30;;;;;;4900659;29;20475;-71
2023/05/22 09:02:49;;;;;;;2.80;2.70;;;26.20;93.90;;;;;;4912294;29;20484;-71
2023/05/22 09:05:16;;;;;;;2.20;2.20;;;26.10;93.50;;;;;;4911164;29;20473;-71
2023/05/22 09:07:43;;;;;;;2.30;2.20;;;26.00;93.60;;;;;;4904922;29;20566;-71
2023/05/22 09:10:10;;;;;;;2.27;2.17;;;26.00;93.80;;;;;;4908583;29;20947;-71
2023/05/22 09:12:48;;;;;;;2.00;2.00;;;26.00;93.30;;;;;;4913546;29;20617;-72
2023/05/22 09:15:19;;;;;;;2.40;2.30;;;26.00;93.50;;;;;;4908923;29;20474;-71
2023/05/22 09:17:45;;;;;;;1.80;1.80;;;26.10;93.90;;;;;;4911000;29;20669;-73
2023/05/22 09:20:16;;;;;;;3.30;2.07;;;26.10;93.10;;;;;;4911317;29;20469;-72
2023/05/22 09:22:42;;;;;;;2.40;2.30;;;26.10;93.30;;;;;;4912337;29;20955;-71
2023/05/22 09:25:09;;;;;;;1.83;1.73;;;26.20;93.10;;;;;;4914271;29;20478;-71
2023/05/22 09:27:36;;;;;;;1.40;1.40;;;26.20;92.40;;;;;;4916043;29;20473;-72
2023/05/22 09:30:05;;;;;;;1.30;1.30;;;26.10;92.70;;;;;;4914273;29;20524;-71
2023/05/22 09:32:32;;;;;;;1.90;1.80;;;26.10;92.80;;;;;;4912624;29;20577;-71
2023/05/22 09:35:06;;;;;;;1.60;1.60;;;26.30;93.00;;;;;;4909181;29;20476;-71
2023/05/22 09:37:34;;;;;;;1.77;1.77;;;26.30;92.60;;;;;;4915850;29;20495;-71
2023/05/22 09:40:05;;;;;;;2.30;2.20;;;26.30;92.60;;;;;;4912884;29;20480;-71
2023/05/22 09:42:33;;;;;;;4.80;2.13;;;26.40;93.10;;;;;;4915153;29;20496;-71
2023/05/22 09:45:04;;;;;;;1.83;1.77;;;26.40;93.20;;;;;;4913503;29;20494;-70
2023/05/22 09:47:31;;;;;;;2.20;2.10;;;26.50;92.70;;;;;;4916185;29;20849;-70
2023/05/22 09:49:58;;;;;;;2.53;2.43;;;26.60;92.60;;;;;;4914028;29;20493;-71
2023/05/22 09:52:25;;;;;;;1.80;1.80;;;26.80;92.80;;;;;;4912215;29;20526;-71
2023/05/22 09:54:54;;;;;;;1.90;1.90;;;27.00;92.10;;;;;;4913357;29;20487;-70
2023/05/22 09:57:21;;;;;;;1.60;1.60;;;27.10;92.70;;;;;;4915227;29;20565;-71
2023/05/22 09:59:53;;;;;;;2.00;2.00;;;27.20;92.40;;;;;;4914637;29;20462;-71
2023/05/22 10:02:23;;;;;;;1.90;1.90;;;27.30;91.80;;;;;;4913335;29;20795;-70
2023/05/22 10:04:50;;;;;;;2.20;2.20;;;27.20;91.50;;;;;;4916180;29;20939;-71
2023/05/22 10:07:18;;;;;;;2.00;2.00;;;27.20;91.90;;;;;;4913620;29;20883;-70
2023/05/22 10:09:52;;;;;;;1.57;1.57;;;27.20;92.30;;;;;;4915032;29;20495;-70
2023/05/22 10:12:21;;;;;;;1.80;1.80;;;27.20;91.60;;;;;;4914344;29;20520;-70
2023/05/22 10:14:48;;;;;;;3.17;2.10;;;27.30;91.80;;;;;;4903297;29;20558;-69
2023/05/22 10:17:16;;;;;;;1.70;1.70;;;27.30;91.40;;;;;;4906944;29;20455;-70
2023/05/22 10:19:46;;;;;;;1.67;1.67;;;27.30;91.50;;;;;;4907070;29;20501;-69
2023/05/22 10:22:19;;;;;;;6.33;2.63;;;27.20;91.50;;;;;;4911648;29;20495;-70
2023/05/22 10:24:47;;;;;;;3.00;2.90;;;27.20;91.70;;;;;;4904284;29;20554;-71
2023/05/22 10:27:14;;;;;;;1.87;1.87;;;27.10;91.50;;;;;;4916842;29;20531;-71
2023/05/22 10:29:49;;;;;;;1.80;1.80;;;27.20;91.50;;;;;;4907621;29;20593;-70
2023/05/22 10:32:23;;;;;;;1.83;1.83;;;27.20;91.30;;;;;;4904603;29;20501;-70
2023/05/22 10:34:59;;;;;;;1.37;1.37;;;27.30;91.20;;;;;;4907919;29;20482;-70
2023/05/22 10:37:44;;;;;;;1.60;1.33;;;27.30;90.60;;;;;;4915444;29;20500;-70
2023/05/22 10:40:13;;;;;;;1.70;1.70;;;27.40;90.40;;;;;;4906148;29;20475;-71
2023/05/22 10:42:40;;;;;;;2.10;2.00;;;27.40;90.60;;;;;;4914864;29;20478;-71
2023/05/22 10:45:08;;;;;;;2.00;2.00;;;27.50;90.80;;;;;;4914729;29;20463;-70
2023/05/22 10:47:35;;;;;;;1.73;1.73;;;27.70;90.10;;;;;;4914626;29;20474;-72
2023/05/22 10:50:08;;;;;;;2.17;2.17;;;27.80;90.00;;;;;;4903256;29;20490;-70
2023/05/22 10:52:35;;;;;;;2.53;2.10;;;27.90;90.10;;;;;;4915683;29;20508;-71
2023/05/22 10:55:06;;;;;;;1.53;1.53;;;27.90;89.50;;;;;;4912239;29;20589;-71
2023/05/22 10:57:34;;;;;;;1.70;1.70;;;27.90;90.40;;;;;;4913920;29;20574;-71
2023/05/22 11:00:09;;;;;;;2.67;2.50;;;27.90;88.60;;;;;;4913357;29;20552;-72
2023/05/22 11:02:39;;;;;;;2.03;2.03;;;28.00;89.10;;;;;;4913661;29;20601;-71
2023/05/22 11:05:36;;;;;;;1.53;1.53;;;28.00;88.40;;;;;;4914693;29;20969;-71
2023/05/22 11:08:35;;;;;;;1.50;1.50;;;28.10;88.50;;;;;;4915788;29;20487;-71
2023/05/22 11:11:12;;;;;;;2.30;2.30;;;28.10;88.20;;;;;;4915361;29;21023;-70
2023/05/22 11:13:39;;;;;;;1.43;1.43;;;28.10;87.40;;;;;;4922032;29;20470;-71
2023/05/22 11:16:05;;;;;;;2.27;2.23;;;28.10;88.00;;;;;;4913141;29;20510;-71
2023/05/22 11:18:32;;;;;;;2.97;2.10;;;28.10;86.00;;;;;;4914721;29;20480;-71
2023/05/22 11:21:01;;;;;;;2.70;2.60;;;28.00;86.30;;;;;;4907316;29;20485;-71
2023/05/22 11:23:27;;;;;;;2.23;2.10;;;28.00;86.40;;;;;;4912701;29;20504;-70
2023/05/22 11:25:54;;;;;;;1.97;1.97;;;28.10;87.00;;;;;;4911638;29;20852;-70
2023/05/22 11:28:23;;;;;;;2.53;2.43;;;28.20;86.60;;;;;;4908994;29;20465;-71
2023/05/22 11:30:51;;;;;;;2.53;1.87;;;28.30;86.10;;;;;;4909191;29;20498;-71
2023/05/22 11:33:18;;;;;;;2.40;2.30;;;28.40;86.50;;;;;;4912301;29;20472;-71
2023/05/22 11:35:48;;;;;;;2.87;2.67;;;28.60;85.90;;;;;;4914762;29;20510;-71
2023/05/22 11:38:17;;;;;;;1.60;1.60;;;28.60;85.90;;;;;;4905851;29;20968;-71
2023/05/22 11:40:44;;;;;;;2.30;2.30;;;28.70;85.00;;;;;;4914761;29;20504;-71
2023/05/22 11:43:10;;;;;;;1.83;1.83;;;28.60;83.90;;;;;;4915804;29;20476;-71
2023/05/22 11:45:39;;;;;;;2.13;2.03;;;28.70;85.00;;;;;;4907157;29;20965;-71
2023/05/22 11:48:08;;;;;;;2.20;2.10;;;28.70;83.80;;;;;;4902397;29;20468;-71
2023/05/22 11:50:35;;;;;;;2.43;2.43;;;28.70;84.50;;;;;;4910911;29;20491;-71
2023/05/22 11:53:02;;;;;;;1.70;1.63;;;28.60;83.80;;;;;;4907092;29;20478;-70
2023/05/22 11:55:32;;;;;;;2.03;2.03;;;28.40;84.40;;;;;;4913187;29;20471;-70
2023/05/22 11:58:00;;;;;;;1.60;1.60;;;28.60;85.00;;;;;;4914962;29;20598;-71
2023/05/22 12:00:28;;;;;;;4.80;1.97;;;28.70;84.10;;;;;;4914437;29;20547;-70
2023/05/22 12:02:55;;;;;;;2.10;2.00;;;28.80;83.20;;;;;;4915433;29;20458;-70
2023/05/22 12:05:21;;;;;;;1.80;1.80;;;28.80;83.40;;;;;;4912596;29;20904;-71
2023/05/22 12:07:48;;;;;;;4.03;2.23;;;28.80;83.10;;;;;;4913780;29;20588;-71
2023/05/22 12:10:15;;;;;;;2.40;2.40;;;28.80;82.70;;;;;;4908150;29;20488;-70
2023/05/22 12:12:44;;;;;;;1.50;1.50;;;28.90;82.60;;;;;;4915206;29;20474;-70
2023/05/22 12:15:12;;;;;;;1.73;1.73;;;28.80;80.50;;;;;;4913968;29;20465;-71
2023/05/22 12:17:39;;;;;;;1.27;1.27;;;28.60;80.40;;;;;;4914383;29;20477;-70
2023/05/22 12:20:06;;;;;;;1.93;1.83;;;28.60;80.70;;;;;;4910549;29;20564;-71
2023/05/22 12:22:33;;;;;;;2.00;1.90;;;28.30;81.90;;;;;;4910200;29;21060;-71
2023/05/22 12:25:00;;;;;;;1.53;1.53;;;28.30;81.90;;;;;;4914369;29;20463;-71
2023/05/22 12:27:31;;;;;;;2.30;2.20;;;28.50;82.60;;;;;;4913642;29;20476;-71
2023/05/22 12:29:59;;;;;;;2.30;2.20;;;28.70;83.90;;;;;;4914036;29;20579;-71
2023/05/22 12:32:26;;;;;;;2.17;2.13;;;28.90;81.30;;;;;;4908554;29;20500;-71
2023/05/22 12:34:52;;;;;;;1.80;1.80;;;29.00;78.00;;;;;;4911572;29;20471;-71
2023/05/22 12:37:20;;;;;;;1.83;1.83;;;28.90;78.40;;;;;;4913816;29;20961;-71
2023/05/22 12:39:54;;;;;;;2.00;1.90;;;28.80;77.70;;;;;;4905969;29;20541;-71
2023/05/22 12:42:21;;;;;;;1.83;1.83;;;28.70;76.60;;;;;;4914450;29;20527;-71
2023/05/22 12:44:48;;;;;;;1.73;1.73;;;28.60;78.50;;;;;;4913263;29;20842;-71
2023/05/22 12:47:16;;;;;;;2.00;2.00;;;28.60;77.50;;;;;;4911223;29;20477;-71
2023/05/22 12:49:42;;;;;;;1.77;1.77;;;28.70;78.70;;;;;;4914463;29;20487;-70
2023/05/22 12:52:09;;;;;;;2.30;2.30;;;28.70;76.80;;;;;;4903435;29;20486;-70
2023/05/22 12:54:36;;;;;;;2.63;1.40;;;28.80;76.80;;;;;;4913048;29;20493;-70
2023/05/22 12:57:02;;;;;;;1.93;1.93;;;28.50;75.50;;;;;;4933427;29;20472;-70
2023/05/22 12:59:29;;;;;;;1.67;1.67;;;28.60;75.80;;;;;;4906920;29;20544;-70
2023/05/22 13:02:00;;;;;;;1.80;1.80;;;28.70;76.00;;;;;;4909239;29;20508;-70
2023/05/22 13:04:28;;;;;;;1.47;1.47;;;28.80;76.60;;;;;;4917381;29;20468;-70
2023/05/22 13:06:55;;;;;;;1.83;1.73;;;28.80;76.10;;;;;;4917951;29;20479;-70
2023/05/22 13:09:22;;;;;;;2.17;2.07;;;28.50;76.70;;;;;;4911171;29;20472;-70
2023/05/22 13:11:49;;;;;;;2.03;2.03;;;28.40;76.70;;;;;;4915117;29;20486;-70
2023/05/22 13:14:15;;;;;;;1.77;1.67;;;28.30;76.50;;;;;;4916667;29;20497;-70
2023/05/22 13:16:42;;;;;;;1.70;1.70;;;28.30;77.20;;;;;;4906452;29;20486;-70
2023/05/22 13:19:09;;;;;;;2.30;2.20;;;28.30;77.30;;;;;;4914123;29;20581;-70
2023/05/22 13:21:37;;;;;;;2.77;2.50;;;28.20;76.60;;;;;;4918329;29;20949;-70
2023/05/22 13:24:04;;;;;;;2.00;2.00;;;28.20;77.90;;;;;;4917456;29;20474;-70
2023/05/22 13:26:31;;;;;;;2.27;2.27;;;28.20;75.70;;;;;;4917942;29;20478;-69
2023/05/22 13:28:57;;;;;;;2.50;2.50;;;28.30;76.70;;;;;;4906747;29;20842;-70
2023/05/22 13:31:24;;;;;;;2.27;2.27;;;28.60;77.00;;;;;;4912436;29;20502;-70
2023/05/22 13:33:51;;;;;;;2.67;2.57;;;28.70;77.40;;;;;;4916924;29;20803;-70
2023/05/22 13:36:18;;;;;;;2.40;2.30;;;28.70;77.40;;;;;;4917428;29;20472;-70
2023/05/22 13:38:46;;;;;;;2.43;2.33;;;28.90;77.30;;;;;;4914842;29;20475;-70
2023/05/22 13:41:14;;;;;;;2.47;2.47;;;29.10;77.90;;;;;;4905282;29;20496;-70
2023/05/22 13:43:40;;;;;;;2.07;2.07;;;29.20;76.30;;;;;;4913503;29;20472;-70
2023/05/22 13:46:07;;;;;;;2.03;1.93;;;29.10;77.10;;;;;;4915393;29;20541;-69
2023/05/22 13:48:34;;;;;;;2.13;2.13;;;29.20;77.10;;;;;;4917014;29;20467;-72
2023/05/22 13:51:00;;;;;;;2.90;2.80;;;29.20;77.50;;;;;;4916739;29;20497;-71
2023/05/22 13:53:27;;;;;;;1.97;1.97;;;29.20;78.20;;;;;;4916270;29;20474;-70
2023/05/22 13:55:55;;;;;;;1.77;1.77;;;29.20;78.30;;;;;;4915979;29;20475;-72
2023/05/22 13:58:22;;;;;;;2.10;2.00;;;29.20;77.80;;;;;;4916045;29;20484;-71
2023/05/22 14:00:49;;;;;;;2.30;2.30;;;29.10;77.00;;;;;;4915276;29;20951;-71
2023/05/22 14:03:16;;;;;;;2.67;2.67;;;28.90;77.10;;;;;;4915335;29;20489;-71
2023/05/22 14:05:43;;;;;;;1.93;1.83;;;28.90;77.20;;;;;;4916843;29;20497;-72
2023/05/22 14:08:10;;;;;;;2.50;2.50;;;28.80;77.40;;;;;;4917249;29;20477;-71
2023/05/22 14:10:37;;;;;;;2.07;2.07;;;28.70;76.40;;;;;;4915136;29;20508;-70
2023/05/22 14:13:05;;;;;;;2.20;2.20;;;28.60;77.50;;;;;;4914967;29;20485;-72
2023/05/22 14:15:32;;;;;;;1.90;1.80;;;28.50;77.60;;;;;;4914118;29;20471;-70
2023/05/22 14:17:59;;;;;;;1.90;1.90;;;28.40;77.70;;;;;;4915084;29;20483;-70
2023/05/22 14:20:25;;;;;;;2.60;2.50;;;28.10;77.70;;;;;;4916360;29;20468;-70
2023/05/22 14:22:52;;;;;;;2.10;2.10;;;28.10;79.10;;;;;;4908288;29;20472;-70
2023/05/22 14:25:19;;;;;;;2.20;2.20;;;28.10;79.40;;;;;;4915966;29;20464;-71
2023/05/22 14:27:46;;;;;;;2.57;2.47;;;28.10;78.60;;;;;;4916956;29;20757;-71
2023/05/22 14:30:14;;;;;;;2.53;2.43;;;28.00;78.00;;;;;;4916075;29;20515;-72
2023/05/22 14:32:41;;;;;;;2.40;2.40;;;28.00;77.70;;;;;;4914532;29;20503;-70
2023/05/22 14:35:09;;;;;;;2.73;2.10;;;28.10;79.50;;;;;;4906252;29;20487;-70
2023/05/22 14:37:37;;;;;;;2.57;2.47;;;28.30;80.80;;;;;;4914591;29;20500;-70
2023/05/22 14:40:04;;;;;;;2.03;1.93;;;28.50;80.30;;;;;;4915445;29;20832;-70
2023/05/22 14:42:31;;;;;;;2.40;2.30;;;28.80;79.70;;;;;;4912960;29;21004;-70
2023/05/22 14:44:58;;;;;;;2.27;2.27;;;28.90;79.10;;;;;;4910376;29;20898;-70
2023/05/22 14:47:26;;;;;;;2.40;2.40;;;28.80;78.10;;;;;;4910879;29;20472;-71
2023/05/22 14:49:53;;;;;;;2.77;2.60;;;28.60;78.80;;;;;;4911916;29;20546;-70
2023/05/22 14:52:20;;;;;;;2.43;2.33;;;28.30;79.30;;;;;;4915810;29;21020;-70
2023/05/22 14:54:47;;;;;;;1.73;1.73;;;28.20;79.40;;;;;;4908619;29;20484;-71
2023/05/22 14:57:14;;;;;;;2.07;2.07;;;28.00;79.30;;;;;;4910665;29;20844;-70
2023/05/22 14:59:43;;;;;;;2.00;2.00;;;27.90;80.60;;;;;;4912961;29;20470;-71
2023/05/22 15:02:10;;;;;;;3.13;2.20;;;27.60;82.30;;;;;;4905752;29;20490;-71
2023/05/22 15:04:38;;;;;;;2.60;2.50;;;27.60;82.50;;;;;;4910275;29;20466;-71
2023/05/22 15:07:05;;;;;;;2.63;2.47;;;27.60;82.00;;;;;;4912942;29;20466;-71
2023/05/22 15:09:32;;;;;;;1.70;1.70;;;27.50;81.60;;;;;;4915341;29;20477;-70
2023/05/22 15:11:58;;;;;;;2.43;2.43;;;27.40;81.90;;;;;;4907991;29;20913;-70
2023/05/22 15:14:25;;;;;;;2.00;2.00;;;27.40;82.50;;;;;;4912841;29;20480;-71
2023/05/22 15:16:52;;;;;;;2.80;2.63;;;27.30;83.10;;;;;;4910342;29;20517;-70
2023/05/22 15:19:18;;;;;;;2.97;2.87;;;27.30;83.50;;;;;;4915385;29;20473;-71
2023/05/22 15:21:46;;;;;;;2.97;2.87;;;27.20;84.10;;;;;;4911137;29;20495;-70
2023/05/22 15:24:13;;;;;;;2.73;2.73;;;27.20;85.30;;;;;;4912270;29;20478;-70
2023/05/22 15:26:40;;;;;;;3.50;3.23;;;27.10;85.10;;;;;;4910679;29;20501;-70
2023/05/22 15:29:06;;;;;;;3.23;3.13;;;27.00;85.50;;;;;;4911915;29;20478;-70
2023/05/22 15:31:33;;;;;;;4.80;3.13;;;27.00;86.30;;;;;;4909327;29;21051;-71
2023/05/22 15:34:00;;;;;;;3.90;3.53;;;26.80;86.00;;;;;;4909915;29;20482;-70
2023/05/22 15:36:28;;;;;;;2.63;2.53;;;26.80;86.70;;;;;;4910528;29;20810;-71
2023/05/22 15:38:56;;;;;;;2.67;2.67;;;26.60;86.70;;;;;;4914164;29;20516;-71
2023/05/22 15:41:22;;;;;;;2.60;2.53;;;26.60;87.60;;;;;;4909630;29;20488;-71
2023/05/22 15:43:51;;;;;;;2.60;2.50;;;26.50;87.70;;;;;;4906345;29;20825;-71
2023/05/22 15:46:18;;;;;;;2.60;2.50;;;26.40;88.20;;;;;;4908514;29;20504;-70
2023/05/22 15:48:45;;;;;;;3.00;2.90;;;26.40;88.30;;;;;;4902839;29;20863;-70
2023/05/22 15:51:12;;;;;;;2.97;2.87;;;26.30;88.90;;;;;;4910267;29;20531;-71
2023/05/22 15:53:39;;;;;;;2.50;2.40;;;26.20;88.80;;;;;;4907711;29;20844;-71
2023/05/22 15:56:08;;;;;;;2.83;2.63;;;26.10;89.30;;;;;;4910811;29;20470;-72
2023/05/22 15:58:35;;;;;;;2.63;2.53;;;26.00;89.80;;;;;;4912183;29;20475;-70
2023/05/22 16:01:02;;;;;;;3.30;3.00;;;26.00;90.10;;;;;;4910251;29;20496;-70
2023/05/22 16:03:29;;;;;;;2.47;2.47;;;25.90;90.10;;;;;;4910269;29;20988;-70
2023/05/22 16:05:55;;;;;;;2.70;2.50;;;25.90;90.40;;;;;;4908136;29;20479;-70
2023/05/22 16:08:22;;;;;;;2.57;2.47;;;25.80;89.90;;;;;;4913447;29;20475;-70
2023/05/22 16:10:49;;;;;;;2.70;2.60;;;25.70;90.30;;;;;;4907628;29;20549;-71
2023/05/22 16:13:17;;;;;;;3.30;3.00;;;25.50;93.50;;;;;;4912138;29;20566;-71
2023/05/22 16:15:44;;;;;;;2.80;2.70;;;25.00;96.00;;;;;;4907906;29;20982;-71
2023/05/22 16:18:11;;;;;;;4.10;3.80;;;24.40;98.30;;;;;;4905696;29;20509;-70
2023/05/22 16:20:37;;;;;;;2.83;2.60;;;24.00;99.90;;;;;;4905204;29;20493;-71
2023/05/22 16:23:04;;;;;;;2.93;2.83;;;23.70;99.90;;;;;;4909694;29;20483;-71
2023/05/22 16:25:31;;;;;;;6.03;3.50;;;23.30;99.90;;;;;;4906807;29;20480;-71
2023/05/22 16:27:57;;;;;;;2.67;2.57;;;23.00;99.90;;;;;;4912411;29;20483;-71
2023/05/22 16:30:25;;;;;;;3.83;3.63;;;22.70;99.90;;;;;;4906015;29;20897;-71
2023/05/22 16:32:52;;;;;;;3.73;3.53;;;22.40;99.90;;;;;;4905407;29;20481;-71
2023/05/22 16:35:20;;;;;;;3.77;3.47;;;22.20;99.90;;;;;;4908119;29;20527;-71
2023/05/22 16:37:47;;;;;;;3.80;3.60;;;21.90;99.90;;;;;;4911620;29;20470;-71
2023/05/22 16:40:14;;;;;;;3.07;2.90;;;21.70;99.90;;;;;;4909994;29;20477;-71
2023/05/22 16:42:41;;;;;;;3.80;3.67;;;21.40;99.90;;;;;;4910468;29;20488;-71
2023/05/22 16:45:09;;;;;;;2.97;2.77;;;21.10;99.90;;;;;;4904994;29;20470;-70
2023/05/22 16:47:37;;;;;;;9.30;4.40;;;20.90;99.90;;;;;;4913224;29;20471;-70
2023/05/22 16:50:04;;;;;;;2.73;2.53;;;20.60;99.90;;;;;;4906839;29;21977;-70
2023/05/22 16:52:31;;;;;;;3.37;3.20;;;20.50;99.90;;;;;;4918475;29;20501;-70